CPA431 RCKH-VHHH
Flight info
| Callsign | CPA431 |
|---|---|
| Flight time | 0h 59m |
| Altitude | 40000 |
| Route | N0489F400 PARAS1B PARAS T7 WP521 G581 ELATO V522 ABBEY |
| Aircraft | B77W/H-SDE3FGHIJ3J7M3P2RWXZ/LB1D1 |
Departure
| Time | 2026-04-19 03:23 |
|---|---|
| Airport | Kaohsiung International Airport (RCKH) |
Arrival
| Time | 2026-04-19 04:23 |
|---|---|
| Airport | Hong Kong International Airport (VHHH) |
| Time | Latitude | Longitude | Altitude | Speed | Heading |
|---|---|---|---|---|---|
| 2026-04-19 02:45 | 22.57266 | 120.34237 | 43 ft | 0 kts | 271° |
| 2026-04-19 03:08 | 22.57266 | 120.34246 | 43 ft | 4 kts | 271° |
| 2026-04-19 03:08 | 22.57266 | 120.34275 | 43 ft | 4 kts | 270° |
| 2026-04-19 03:08 | 22.57266 | 120.34300 | 43 ft | 4 kts | 282° |
| 2026-04-19 03:08 | 22.57259 | 120.34319 | 42 ft | 4 kts | 321° |
| 2026-04-19 03:09 | 22.57244 | 120.34326 | 40 ft | 4 kts | 2° |
| 2026-04-19 03:09 | 22.57217 | 120.34324 | 41 ft | 3 kts | 2° |
| 2026-04-19 03:09 | 22.57213 | 120.34324 | 42 ft | 0 kts | 1° |
| 2026-04-19 03:13 | 22.57214 | 120.34324 | 42 ft | 1 kts | 1° |
| 2026-04-19 03:13 | 22.57219 | 120.34324 | 40 ft | 1 kts | 1° |
| 2026-04-19 03:13 | 22.57234 | 120.34324 | 41 ft | 3 kts | 1° |
| 2026-04-19 03:13 | 22.57259 | 120.34325 | 41 ft | 4 kts | 1° |
| 2026-04-19 03:14 | 22.57292 | 120.34325 | 47 ft | 5 kts | 1° |
| 2026-04-19 03:14 | 22.57333 | 120.34326 | 43 ft | 7 kts | 1° |
| 2026-04-19 03:14 | 22.57378 | 120.34324 | 43 ft | 6 kts | 348° |
| 2026-04-19 03:14 | 22.57401 | 120.34288 | 43 ft | 6 kts | 282° |
| 2026-04-19 03:15 | 22.57404 | 120.34236 | 43 ft | 7 kts | 270° |
| 2026-04-19 03:15 | 22.57406 | 120.34177 | 43 ft | 8 kts | 272° |
| 2026-04-19 03:15 | 22.57427 | 120.34127 | 43 ft | 8 kts | 328° |
| 2026-04-19 03:15 | 22.57482 | 120.34122 | 43 ft | 8 kts | 0° |
| 2026-04-19 03:16 | 22.57542 | 120.34127 | 43 ft | 9 kts | 20° |
| 2026-04-19 03:16 | 22.57565 | 120.34186 | 43 ft | 9 kts | 88° |
| 2026-04-19 03:16 | 22.57563 | 120.34262 | 43 ft | 11 kts | 92° |
| 2026-04-19 03:16 | 22.57560 | 120.34346 | 43 ft | 12 kts | 92° |
| 2026-04-19 03:17 | 22.57557 | 120.34438 | 43 ft | 13 kts | 92° |
| 2026-04-19 03:17 | 22.57554 | 120.34537 | 43 ft | 14 kts | 92° |
| 2026-04-19 03:17 | 22.57551 | 120.34645 | 43 ft | 15 kts | 92° |
| 2026-04-19 03:17 | 22.57547 | 120.34760 | 43 ft | 16 kts | 92° |
| 2026-04-19 03:18 | 22.57544 | 120.34883 | 43 ft | 17 kts | 92° |
| 2026-04-19 03:18 | 22.57540 | 120.35013 | 43 ft | 18 kts | 92° |
| 2026-04-19 03:18 | 22.57536 | 120.35147 | 43 ft | 18 kts | 92° |
| 2026-04-19 03:18 | 22.57531 | 120.35281 | 42 ft | 18 kts | 92° |
| 2026-04-19 03:19 | 22.57527 | 120.35415 | 43 ft | 18 kts | 92° |
| 2026-04-19 03:19 | 22.57523 | 120.35550 | 43 ft | 18 kts | 91° |
| 2026-04-19 03:19 | 22.57519 | 120.35684 | 43 ft | 18 kts | 91° |
| 2026-04-19 03:19 | 22.57515 | 120.35818 | 43 ft | 18 kts | 92° |
| 2026-04-19 03:20 | 22.57511 | 120.35952 | 43 ft | 18 kts | 92° |
| 2026-04-19 03:20 | 22.57506 | 120.36087 | 43 ft | 18 kts | 92° |
| 2026-04-19 03:20 | 22.57502 | 120.36221 | 43 ft | 18 kts | 92° |
| 2026-04-19 03:20 | 22.57499 | 120.36354 | 43 ft | 14 kts | 91° |
| 2026-04-19 03:21 | 22.57496 | 120.36445 | 43 ft | 11 kts | 91° |
| 2026-04-19 03:21 | 22.57511 | 120.36513 | 43 ft | 8 kts | 48° |
| 2026-04-19 03:21 | 22.57567 | 120.36525 | 44 ft | 9 kts | 0° |
| 2026-04-19 03:21 | 22.57626 | 120.36524 | 43 ft | 8 kts | 356° |
| 2026-04-19 03:22 | 22.57661 | 120.36488 | 43 ft | 8 kts | 276° |
| 2026-04-19 03:22 | 22.57662 | 120.36468 | 44 ft | 1 kts | 271° |
| 2026-04-19 03:22 | 22.57662 | 120.36456 | 44 ft | 2 kts | 270° |
| 2026-04-19 03:22 | 22.57662 | 120.36440 | 44 ft | 3 kts | 272° |
| 2026-04-19 03:23 | 22.57668 | 120.36252 | 45 ft | 63 kts | 271° |
| 2026-04-19 03:23 | 22.57694 | 120.35449 | 43 ft | 148 kts | 272° |
| 2026-04-19 03:23 | 22.57727 | 120.34159 | 437 ft | 175 kts | 272° |
| 2026-04-19 03:23 | 22.57752 | 120.32900 | 1424 ft | 168 kts | 272° |
| 2026-04-19 03:24 | 22.57770 | 120.31573 | 1978 ft | 182 kts | 272° |
| 2026-04-19 03:24 | 22.57797 | 120.30213 | 2769 ft | 181 kts | 272° |
| 2026-04-19 03:24 | 22.57837 | 120.28835 | 3436 ft | 184 kts | 273° |
| 2026-04-19 03:24 | 22.57882 | 120.27373 | 3834 ft | 208 kts | 272° |
| 2026-04-19 03:25 | 22.57929 | 120.25683 | 4109 ft | 239 kts | 270° |
| 2026-04-19 03:25 | 22.57450 | 120.23891 | 4508 ft | 261 kts | 234° |
| 2026-04-19 03:25 | 22.56185 | 120.22437 | 5255 ft | 270 kts | 224° |
| 2026-04-19 03:25 | 22.54838 | 120.20994 | 6252 ft | 274 kts | 226° |
| 2026-04-19 03:26 | 22.53511 | 120.19522 | 7179 ft | 274 kts | 227° |
| 2026-04-19 03:26 | 22.52205 | 120.18054 | 7832 ft | 276 kts | 227° |
| 2026-04-19 03:26 | 22.50847 | 120.16521 | 8718 ft | 282 kts | 228° |
| 2026-04-19 03:26 | 22.49497 | 120.14991 | 9645 ft | 287 kts | 228° |
| 2026-04-19 03:27 | 22.48113 | 120.13420 | 10533 ft | 293 kts | 228° |
| 2026-04-19 03:27 | 22.46649 | 120.11756 | 10950 ft | 320 kts | 228° |
| 2026-04-19 03:27 | 22.45040 | 120.09925 | 11181 ft | 352 kts | 228° |
| 2026-04-19 03:27 | 22.43286 | 120.07935 | 11638 ft | 374 kts | 228° |
| 2026-04-19 03:28 | 22.41497 | 120.05847 | 12533 ft | 383 kts | 231° |
| 2026-04-19 03:28 | 22.39868 | 120.03541 | 13555 ft | 389 kts | 236° |
| 2026-04-19 03:28 | 22.38327 | 120.01117 | 14527 ft | 393 kts | 237° |
| 2026-04-19 03:28 | 22.36796 | 119.98658 | 15546 ft | 396 kts | 238° |
| 2026-04-19 03:29 | 22.35244 | 119.96191 | 16537 ft | 399 kts | 238° |
| 2026-04-19 03:29 | 22.33659 | 119.93710 | 17496 ft | 404 kts | 238° |
| 2026-04-19 03:29 | 22.32041 | 119.91209 | 18396 ft | 409 kts | 238° |
| 2026-04-19 03:29 | 22.30397 | 119.88688 | 19196 ft | 413 kts | 238° |
| 2026-04-19 03:30 | 22.28734 | 119.86148 | 20012 ft | 416 kts | 238° |
| 2026-04-19 03:30 | 22.27054 | 119.83585 | 20816 ft | 419 kts | 238° |
| 2026-04-19 03:30 | 22.25363 | 119.81005 | 21598 ft | 424 kts | 238° |
| 2026-04-19 03:30 | 22.23653 | 119.78398 | 22359 ft | 427 kts | 238° |
| 2026-04-19 03:31 | 22.21932 | 119.75766 | 23106 ft | 429 kts | 239° |
| 2026-04-19 03:31 | 22.20514 | 119.72936 | 23675 ft | 429 kts | 253° |
| 2026-04-19 03:31 | 22.19813 | 119.69829 | 24112 ft | 429 kts | 261° |
| 2026-04-19 03:31 | 22.19202 | 119.66653 | 24629 ft | 434 kts | 259° |
| 2026-04-19 03:32 | 22.18548 | 119.63470 | 25285 ft | 435 kts | 259° |
| 2026-04-19 03:32 | 22.17860 | 119.60283 | 25932 ft | 437 kts | 258° |
| 2026-04-19 03:32 | 22.17157 | 119.57090 | 26524 ft | 440 kts | 258° |
| 2026-04-19 03:32 | 22.16486 | 119.53849 | 27094 ft | 443 kts | 261° |
| 2026-04-19 03:33 | 22.16047 | 119.50547 | 27657 ft | 446 kts | 265° |
| 2026-04-19 03:33 | 22.15900 | 119.47201 | 28210 ft | 448 kts | 269° |
| 2026-04-19 03:33 | 22.15833 | 119.43827 | 28730 ft | 452 kts | 268° |
| 2026-04-19 03:33 | 22.15762 | 119.40429 | 29225 ft | 455 kts | 268° |
| 2026-04-19 03:34 | 22.15682 | 119.37009 | 29695 ft | 457 kts | 268° |
| 2026-04-19 03:34 | 22.15595 | 119.33575 | 30142 ft | 459 kts | 268° |
| 2026-04-19 03:34 | 22.15502 | 119.30138 | 30693 ft | 457 kts | 268° |
| 2026-04-19 03:34 | 22.15407 | 119.26735 | 31382 ft | 451 kts | 267° |
| 2026-04-19 03:35 | 22.15313 | 119.23372 | 32066 ft | 446 kts | 267° |
| 2026-04-19 03:35 | 22.15219 | 119.20040 | 32673 ft | 443 kts | 267° |
| 2026-04-19 03:35 | 22.15125 | 119.16735 | 33252 ft | 440 kts | 267° |
| 2026-04-19 03:35 | 22.15031 | 119.13441 | 33824 ft | 438 kts | 267° |
| 2026-04-19 03:36 | 22.14971 | 119.10175 | 34306 ft | 436 kts | 269° |
| 2026-04-19 03:36 | 22.15115 | 119.06908 | 34685 ft | 437 kts | 273° |
| 2026-04-19 03:36 | 22.15520 | 119.03652 | 35026 ft | 438 kts | 275° |
| 2026-04-19 03:36 | 22.15956 | 119.00395 | 35394 ft | 438 kts | 275° |
| 2026-04-19 03:37 | 22.16373 | 118.97143 | 35781 ft | 438 kts | 275° |
| 2026-04-19 03:37 | 22.16773 | 118.93887 | 36164 ft | 437 kts | 274° |
| 2026-04-19 03:37 | 22.17161 | 118.90639 | 36520 ft | 437 kts | 274° |
| 2026-04-19 03:37 | 22.17547 | 118.87385 | 36861 ft | 437 kts | 274° |
| 2026-04-19 03:38 | 22.17932 | 118.84137 | 37213 ft | 437 kts | 274° |
| 2026-04-19 03:38 | 22.18318 | 118.80886 | 37552 ft | 437 kts | 274° |
| 2026-04-19 03:38 | 22.18705 | 118.77640 | 37894 ft | 436 kts | 274° |
| 2026-04-19 03:38 | 22.19091 | 118.74393 | 38219 ft | 436 kts | 274° |
| 2026-04-19 03:39 | 22.19477 | 118.71151 | 38551 ft | 436 kts | 273° |
| 2026-04-19 03:39 | 22.19863 | 118.67906 | 38845 ft | 435 kts | 273° |
| 2026-04-19 03:39 | 22.20247 | 118.64666 | 39114 ft | 435 kts | 273° |
| 2026-04-19 03:39 | 22.20629 | 118.61433 | 39396 ft | 434 kts | 273° |
| 2026-04-19 03:40 | 22.21010 | 118.58210 | 39659 ft | 433 kts | 273° |
| 2026-04-19 03:40 | 22.21391 | 118.54986 | 39875 ft | 434 kts | 273° |
| 2026-04-19 03:40 | 22.21771 | 118.51739 | 39910 ft | 437 kts | 273° |
| 2026-04-19 03:41 | 22.22531 | 118.45219 | 39968 ft | 437 kts | 273° |
| 2026-04-19 03:41 | 22.23282 | 118.38760 | 39970 ft | 431 kts | 273° |
| 2026-04-19 03:42 | 22.24023 | 118.32360 | 39980 ft | 429 kts | 273° |
| 2026-04-19 03:42 | 22.24757 | 118.25988 | 39984 ft | 427 kts | 273° |
| 2026-04-19 03:43 | 22.25488 | 118.19622 | 39978 ft | 427 kts | 273° |
| 2026-04-19 03:43 | 22.26218 | 118.13247 | 39986 ft | 428 kts | 273° |
| 2026-04-19 03:44 | 22.26906 | 118.06857 | 39991 ft | 429 kts | 273° |
| 2026-04-19 03:44 | 22.27584 | 118.00447 | 39989 ft | 430 kts | 273° |
| 2026-04-19 03:45 | 22.28305 | 117.94025 | 39985 ft | 431 kts | 274° |
| 2026-04-19 03:45 | 22.29049 | 117.87597 | 39985 ft | 432 kts | 274° |
| 2026-04-19 03:46 | 22.29787 | 117.81163 | 39981 ft | 432 kts | 273° |
| 2026-04-19 03:46 | 22.30518 | 117.74731 | 39981 ft | 431 kts | 273° |
| 2026-04-19 03:47 | 22.31244 | 117.68307 | 39980 ft | 431 kts | 273° |
| 2026-04-19 03:47 | 22.31967 | 117.61889 | 39982 ft | 430 kts | 274° |
| 2026-04-19 03:48 | 22.32687 | 117.55481 | 39983 ft | 429 kts | 273° |
| 2026-04-19 03:48 | 22.33286 | 117.49083 | 39985 ft | 427 kts | 269° |
| 2026-04-19 03:49 | 22.33210 | 117.42705 | 39991 ft | 425 kts | 266° |
| 2026-04-19 03:49 | 22.33074 | 117.36326 | 39984 ft | 424 kts | 266° |
| 2026-04-19 03:50 | 22.32948 | 117.29955 | 39979 ft | 424 kts | 266° |
| 2026-04-19 03:50 | 22.32828 | 117.23582 | 39981 ft | 424 kts | 266° |
| 2026-04-19 03:51 | 22.32709 | 117.17213 | 39982 ft | 424 kts | 266° |
| 2026-04-19 03:51 | 22.32587 | 117.10845 | 39980 ft | 424 kts | 266° |
| 2026-04-19 03:52 | 22.32463 | 117.04474 | 39980 ft | 424 kts | 266° |
| 2026-04-19 03:52 | 22.32336 | 116.98103 | 39978 ft | 424 kts | 266° |
| 2026-04-19 03:53 | 22.32206 | 116.91729 | 39981 ft | 424 kts | 266° |
| 2026-04-19 03:53 | 22.32074 | 116.85354 | 39979 ft | 425 kts | 266° |
| 2026-04-19 03:54 | 22.31940 | 116.78981 | 39984 ft | 425 kts | 266° |
| 2026-04-19 03:54 | 22.31803 | 116.72608 | 39983 ft | 425 kts | 266° |
| 2026-04-19 03:55 | 22.31663 | 116.66235 | 39980 ft | 425 kts | 266° |
| 2026-04-19 03:55 | 22.31521 | 116.59860 | 39981 ft | 424 kts | 266° |
| 2026-04-19 03:56 | 22.31401 | 116.54565 | 39982 ft | 424 kts | 266° |
| 2026-04-19 03:56 | 22.31255 | 116.48191 | 39981 ft | 425 kts | 266° |
| 2026-04-19 03:57 | 22.31106 | 116.41818 | 39981 ft | 425 kts | 266° |
| 2026-04-19 03:57 | 22.30954 | 116.35444 | 39981 ft | 425 kts | 266° |
| 2026-04-19 03:58 | 22.30800 | 116.29067 | 39977 ft | 425 kts | 266° |
| 2026-04-19 03:58 | 22.30642 | 116.22646 | 39978 ft | 425 kts | 266° |
| 2026-04-19 03:59 | 22.30483 | 116.16267 | 39980 ft | 425 kts | 266° |
| 2026-04-19 03:59 | 22.30322 | 116.09888 | 39982 ft | 425 kts | 266° |
| 2026-04-19 04:00 | 22.30159 | 116.03550 | 39984 ft | 425 kts | 266° |
| 2026-04-19 04:00 | 22.30074 | 116.00321 | 39349 ft | 436 kts | 266° |
| 2026-04-19 04:00 | 22.29988 | 115.97062 | 38800 ft | 433 kts | 267° |
| 2026-04-19 04:00 | 22.29903 | 115.93806 | 37963 ft | 433 kts | 267° |
| 2026-04-19 04:01 | 22.29817 | 115.90563 | 37202 ft | 431 kts | 267° |
| 2026-04-19 04:01 | 22.29642 | 115.84070 | 35296 ft | 436 kts | 268° |
| 2026-04-19 04:01 | 22.29556 | 115.80781 | 34275 ft | 440 kts | 268° |
| 2026-04-19 04:02 | 22.29482 | 115.77460 | 33180 ft | 444 kts | 269° |
| 2026-04-19 04:02 | 22.29412 | 115.74118 | 32119 ft | 446 kts | 269° |
| 2026-04-19 04:02 | 22.29339 | 115.70760 | 31111 ft | 449 kts | 269° |
| 2026-04-19 04:02 | 22.29262 | 115.67408 | 30359 ft | 446 kts | 270° |
| 2026-04-19 04:03 | 22.29173 | 115.64066 | 29508 ft | 444 kts | 270° |
| 2026-04-19 04:03 | 22.29079 | 115.60743 | 28699 ft | 441 kts | 270° |
| 2026-04-19 04:03 | 22.28984 | 115.57443 | 27955 ft | 438 kts | 270° |
| 2026-04-19 04:03 | 22.28889 | 115.54168 | 27231 ft | 435 kts | 270° |
| 2026-04-19 04:04 | 22.28796 | 115.50922 | 26533 ft | 432 kts | 270° |
| 2026-04-19 04:04 | 22.28703 | 115.47687 | 25840 ft | 430 kts | 270° |
| 2026-04-19 04:04 | 22.28612 | 115.44473 | 25153 ft | 428 kts | 270° |
| 2026-04-19 04:04 | 22.28520 | 115.41261 | 24456 ft | 427 kts | 270° |
| 2026-04-19 04:05 | 22.28427 | 115.38057 | 23773 ft | 427 kts | 270° |
| 2026-04-19 04:05 | 22.28334 | 115.34849 | 23008 ft | 427 kts | 270° |
| 2026-04-19 04:05 | 22.28239 | 115.31649 | 22292 ft | 425 kts | 270° |
| 2026-04-19 04:05 | 22.28142 | 115.28469 | 21617 ft | 422 kts | 270° |
| 2026-04-19 04:06 | 22.28044 | 115.25310 | 20961 ft | 420 kts | 270° |
| 2026-04-19 04:06 | 22.27946 | 115.22172 | 20313 ft | 417 kts | 270° |
| 2026-04-19 04:06 | 22.27849 | 115.19050 | 19678 ft | 415 kts | 270° |
| 2026-04-19 04:06 | 22.27752 | 115.15947 | 19035 ft | 413 kts | 270° |
| 2026-04-19 04:07 | 22.27655 | 115.12856 | 18398 ft | 411 kts | 270° |
| 2026-04-19 04:07 | 22.27558 | 115.09775 | 17686 ft | 410 kts | 270° |
| 2026-04-19 04:07 | 22.27462 | 115.06719 | 17030 ft | 406 kts | 269° |
| 2026-04-19 04:07 | 22.27365 | 115.03681 | 16391 ft | 403 kts | 269° |
| 2026-04-19 04:08 | 22.27268 | 115.00667 | 15759 ft | 400 kts | 269° |
| 2026-04-19 04:08 | 22.27172 | 114.97679 | 15149 ft | 397 kts | 269° |
| 2026-04-19 04:08 | 22.27094 | 114.94718 | 14541 ft | 393 kts | 271° |
| 2026-04-19 04:08 | 22.27260 | 114.91782 | 13917 ft | 391 kts | 277° |
| 2026-04-19 04:09 | 22.27711 | 114.88900 | 13248 ft | 388 kts | 283° |
| 2026-04-19 04:09 | 22.28338 | 114.86085 | 12615 ft | 384 kts | 284° |
| 2026-04-19 04:09 | 22.28962 | 114.83295 | 12007 ft | 381 kts | 284° |
| 2026-04-19 04:09 | 22.29578 | 114.80523 | 11422 ft | 378 kts | 284° |
| 2026-04-19 04:10 | 22.30185 | 114.77773 | 10918 ft | 373 kts | 283° |
| 2026-04-19 04:10 | 22.30771 | 114.75102 | 10768 ft | 358 kts | 283° |
| 2026-04-19 04:10 | 22.31333 | 114.72530 | 10590 ft | 346 kts | 283° |
| 2026-04-19 04:10 | 22.31873 | 114.70050 | 10448 ft | 334 kts | 283° |
| 2026-04-19 04:11 | 22.32394 | 114.67653 | 10308 ft | 322 kts | 283° |
| 2026-04-19 04:11 | 22.32898 | 114.65334 | 10180 ft | 312 kts | 283° |
| 2026-04-19 04:11 | 22.33385 | 114.63092 | 10050 ft | 302 kts | 283° |
| 2026-04-19 04:11 | 22.33857 | 114.60915 | 9838 ft | 296 kts | 283° |
| 2026-04-19 04:12 | 22.34323 | 114.58761 | 9513 ft | 293 kts | 283° |
| 2026-04-19 04:12 | 22.34787 | 114.56620 | 9168 ft | 292 kts | 283° |
| 2026-04-19 04:12 | 22.35247 | 114.54492 | 8828 ft | 290 kts | 283° |
| 2026-04-19 04:12 | 22.35704 | 114.52379 | 8505 ft | 288 kts | 283° |
| 2026-04-19 04:13 | 22.36158 | 114.50280 | 8181 ft | 286 kts | 283° |
| 2026-04-19 04:13 | 22.36610 | 114.48187 | 7852 ft | 285 kts | 283° |
| 2026-04-19 04:13 | 22.37057 | 114.46114 | 7529 ft | 283 kts | 283° |
| 2026-04-19 04:13 | 22.37503 | 114.44047 | 7221 ft | 282 kts | 283° |
| 2026-04-19 04:14 | 22.37945 | 114.41994 | 6903 ft | 280 kts | 283° |
| 2026-04-19 04:14 | 22.38381 | 114.39967 | 6738 ft | 273 kts | 283° |
| 2026-04-19 04:14 | 22.38806 | 114.37993 | 6577 ft | 265 kts | 283° |
| 2026-04-19 04:14 | 22.39217 | 114.36085 | 6462 ft | 257 kts | 283° |
| 2026-04-19 04:15 | 22.39615 | 114.34231 | 6353 ft | 250 kts | 283° |
| 2026-04-19 04:15 | 22.40008 | 114.32409 | 6114 ft | 248 kts | 283° |
| 2026-04-19 04:15 | 22.40366 | 114.30616 | 5922 ft | 242 kts | 281° |
| 2026-04-19 04:15 | 22.40684 | 114.28845 | 5720 ft | 237 kts | 281° |
| 2026-04-19 04:16 | 22.40992 | 114.27123 | 5574 ft | 230 kts | 281° |
| 2026-04-19 04:16 | 22.41121 | 114.25447 | 5380 ft | 219 kts | 257° |
| 2026-04-19 04:16 | 22.40632 | 114.23958 | 5291 ft | 206 kts | 250° |
| 2026-04-19 04:16 | 22.40137 | 114.22520 | 5148 ft | 203 kts | 251° |
| 2026-04-19 04:17 | 22.39665 | 114.21082 | 5005 ft | 205 kts | 251° |
| 2026-04-19 04:17 | 22.39168 | 114.19549 | 4830 ft | 228 kts | 251° |
| 2026-04-19 04:17 | 22.38644 | 114.17919 | 4541 ft | 231 kts | 251° |
| 2026-04-19 04:17 | 22.38116 | 114.16275 | 4230 ft | 232 kts | 251° |
| 2026-04-19 04:18 | 22.37586 | 114.14623 | 3953 ft | 233 kts | 251° |
| 2026-04-19 04:18 | 22.37055 | 114.12965 | 3666 ft | 234 kts | 251° |
| 2026-04-19 04:18 | 22.36520 | 114.11293 | 3355 ft | 236 kts | 251° |
| 2026-04-19 04:18 | 22.35997 | 114.09662 | 3024 ft | 223 kts | 251° |
| 2026-04-19 04:19 | 22.35506 | 114.08133 | 2746 ft | 208 kts | 251° |
| 2026-04-19 04:19 | 22.35047 | 114.06698 | 2518 ft | 198 kts | 251° |
| 2026-04-19 04:19 | 22.34600 | 114.05304 | 2256 ft | 197 kts | 251° |
| 2026-04-19 04:19 | 22.34153 | 114.03907 | 2000 ft | 196 kts | 251° |
| 2026-04-19 04:20 | 22.33715 | 114.02544 | 1754 ft | 186 kts | 251° |
| 2026-04-19 04:20 | 22.33308 | 114.01275 | 1495 ft | 172 kts | 251° |
| 2026-04-19 04:20 | 22.32932 | 114.00104 | 1297 ft | 159 kts | 251° |
| 2026-04-19 04:20 | 22.32585 | 113.99019 | 1080 ft | 146 kts | 251° |
| 2026-04-19 04:21 | 22.32265 | 113.98023 | 916 ft | 138 kts | 251° |
| 2026-04-19 04:21 | 22.31945 | 113.97027 | 748 ft | 142 kts | 251° |
| 2026-04-19 04:21 | 22.31624 | 113.96029 | 562 ft | 140 kts | 250° |
| 2026-04-19 04:21 | 22.31301 | 113.95038 | 385 ft | 140 kts | 252° |
| 2026-04-19 04:22 | 22.30988 | 113.94057 | 208 ft | 136 kts | 252° |
| 2026-04-19 04:22 | 22.30679 | 113.93081 | 65 ft | 138 kts | 251° |
| 2026-04-19 04:22 | 22.30386 | 113.92168 | 44 ft | 110 kts | 251° |
| 2026-04-19 04:22 | 22.30196 | 113.91577 | 42 ft | 57 kts | 251° |
| 2026-04-19 04:23 | 22.30111 | 113.91285 | 42 ft | 36 kts | 261° |
| 2026-04-19 04:23 | 22.30126 | 113.91103 | 42 ft | 10 kts | 281° |
| 2026-04-19 04:23 | 22.30150 | 113.91040 | 42 ft | 9 kts | 315° |
| 2026-04-19 04:23 | 22.30204 | 113.91051 | 42 ft | 9 kts | 52° |
| 2026-04-19 04:24 | 22.30232 | 113.91120 | 42 ft | 11 kts | 69° |
| 2026-04-19 04:24 | 22.30260 | 113.91201 | 42 ft | 12 kts | 70° |
| 2026-04-19 04:24 | 22.30288 | 113.91293 | 42 ft | 13 kts | 70° |
| 2026-04-19 04:24 | 22.30319 | 113.91389 | 42 ft | 13 kts | 70° |
| 2026-04-19 04:25 | 22.30352 | 113.91487 | 41 ft | 15 kts | 72° |
| 2026-04-19 04:25 | 22.30385 | 113.91594 | 42 ft | 15 kts | 71° |
| 2026-04-19 04:25 | 22.30419 | 113.91701 | 42 ft | 15 kts | 71° |
| 2026-04-19 04:25 | 22.30454 | 113.91808 | 42 ft | 15 kts | 71° |
| 2026-04-19 04:26 | 22.30490 | 113.91919 | 42 ft | 16 kts | 71° |
| 2026-04-19 04:26 | 22.30528 | 113.92036 | 42 ft | 17 kts | 71° |
| 2026-04-19 04:26 | 22.30568 | 113.92160 | 42 ft | 18 kts | 71° |
| 2026-04-19 04:26 | 22.30610 | 113.92290 | 42 ft | 19 kts | 70° |
| 2026-04-19 04:27 | 22.30655 | 113.92427 | 42 ft | 20 kts | 71° |
| 2026-04-19 04:27 | 22.30701 | 113.92571 | 42 ft | 20 kts | 71° |
| 2026-04-19 04:27 | 22.30740 | 113.92693 | 41 ft | 13 kts | 71° |
| 2026-04-19 04:27 | 22.30766 | 113.92769 | 41 ft | 10 kts | 61° |
| 2026-04-19 04:28 | 22.30828 | 113.92786 | 42 ft | 10 kts | 345° |
| 2026-04-19 04:28 | 22.30895 | 113.92762 | 42 ft | 7 kts | 349° |
| 2026-04-19 04:28 | 22.30935 | 113.92759 | 42 ft | 5 kts | 353° |
| 2026-04-19 04:28 | 22.30962 | 113.92736 | 42 ft | 6 kts | 295° |
| 2026-04-19 04:29 | 22.30979 | 113.92694 | 42 ft | 3 kts | 295° |
| 2026-04-19 04:29 | 22.30985 | 113.92682 | 42 ft | 1 kts | 296° |
| 2026-04-19 04:29 | 22.30988 | 113.92674 | 42 ft | 1 kts | 296° |
| 2026-04-19 04:29 | 22.30989 | 113.92672 | 42 ft | 0 kts | 296° |